Time;durP1;ratioP1;P1;durP2;ratioP2;P2;SDS_P1;SDS_P2;PMS_P1;PMS_P2;Temp;Humidity;BMP_temperature;BMP_pressure;BME280_temperature;BME280_humidity;BME280_pressure;Samples;Min_cycle;Max_cycle;Signal;HPM_P1;HPM_P2
2022/01/05 00:02:18;;;;;;;14.63;3.15;;;1.70;99.90;;;;;;5026895;28;20052;-84
2022/01/05 00:04:44;;;;;;;13.63;2.70;;;1.60;99.90;;;;;;5013233;28;20048;-84
2022/01/05 00:07:12;;;;;;;17.60;2.58;;;1.70;99.90;;;;;;5013877;28;20475;-84
2022/01/05 00:09:38;;;;;;;14.15;2.63;;;1.70;99.90;;;;;;4995372;28;20043;-84
2022/01/05 00:12:05;;;;;;;12.50;2.30;;;1.80;99.90;;;;;;4980896;28;20047;-85
2022/01/05 00:14:31;;;;;;;15.30;3.55;;;1.80;99.90;;;;;;5013765;28;20045;-85
2022/01/05 00:16:57;;;;;;;13.18;2.25;;;1.90;99.90;;;;;;4980758;28;20127;-84
2022/01/05 00:19:23;;;;;;;15.25;2.30;;;2.00;99.90;;;;;;4998617;28;20041;-85
2022/01/05 00:21:49;;;;;;;11.38;2.03;;;2.10;99.90;;;;;;5034359;28;20040;-84
2022/01/05 00:24:16;;;;;;;12.40;2.28;;;2.20;99.90;;;;;;5012441;28;20045;-83
2022/01/05 00:26:42;;;;;;;9.05;2.10;;;2.30;99.90;;;;;;4996656;28;20045;-84
2022/01/05 00:29:08;;;;;;;9.32;3.35;;;2.30;99.90;;;;;;4997031;28;20470;-85
2022/01/05 00:31:34;;;;;;;11.05;2.67;;;2.30;99.90;;;;;;5006551;28;20515;-84
2022/01/05 00:34:01;;;;;;;10.07;2.45;;;2.20;99.90;;;;;;5014004;28;20509;-84
2022/01/05 00:36:27;;;;;;;13.65;2.15;;;2.30;99.90;;;;;;4996562;28;20078;-85
2022/01/05 00:38:53;;;;;;;10.60;1.90;;;2.30;99.90;;;;;;4989943;28;20051;-84
2022/01/05 00:41:20;;;;;;;9.55;1.85;;;2.20;99.90;;;;;;5026254;28;20131;-84
2022/01/05 00:43:46;;;;;;;8.30;1.95;;;2.20;99.90;;;;;;4991141;28;20083;-84
2022/01/05 00:46:12;;;;;;;12.63;2.22;;;2.20;99.90;;;;;;5008218;28;20103;-84
2022/01/05 00:48:38;;;;;;;10.90;2.00;;;2.20;99.90;;;;;;5035038;28;20045;-84
2022/01/05 00:51:06;;;;;;;11.60;2.10;;;2.10;99.90;;;;;;4980069;28;20717;-85
2022/01/05 00:53:33;;;;;;;7.47;2.08;;;2.10;99.90;;;;;;5010018;28;20045;-84
2022/01/05 00:56:00;;;;;;;9.25;1.90;;;2.20;99.90;;;;;;4995127;28;20049;-83
2022/01/05 00:58:26;;;;;;;11.20;1.95;;;2.10;99.90;;;;;;4995327;28;20044;-84
2022/01/05 01:00:52;;;;;;;10.30;1.98;;;2.10;99.90;;;;;;5026354;28;20063;-84
2022/01/05 01:03:18;;;;;;;8.32;2.20;;;2.10;99.90;;;;;;4994911;28;20136;-85
2022/01/05 01:05:45;;;;;;;6.15;1.77;;;2.10;99.90;;;;;;4993820;28;20102;-84
2022/01/05 01:08:11;;;;;;;11.27;1.83;;;2.00;99.90;;;;;;5009784;28;20045;-84
2022/01/05 01:10:37;;;;;;;9.98;1.98;;;2.00;99.90;;;;;;5009095;28;20405;-84
2022/01/05 01:13:03;;;;;;;6.68;1.85;;;2.00;99.90;;;;;;5014510;28;20099;-84
2022/01/05 01:15:30;;;;;;;8.68;2.38;;;2.00;99.90;;;;;;5011319;28;20057;-84
2022/01/05 01:17:56;;;;;;;10.85;1.88;;;2.00;99.90;;;;;;5021133;28;20124;-84
2022/01/05 01:20:22;;;;;;;7.38;1.77;;;2.00;99.90;;;;;;5045432;28;20068;-83
2022/01/05 01:22:49;;;;;;;12.25;2.00;;;2.10;99.90;;;;;;5014363;28;20048;-83
2022/01/05 01:25:16;;;;;;;12.55;2.15;;;2.10;99.90;;;;;;5012890;28;20686;-84
2022/01/05 01:27:43;;;;;;;6.60;1.63;;;2.10;99.90;;;;;;5011365;28;20154;-84
2022/01/05 01:30:10;;;;;;;12.63;2.00;;;2.10;99.90;;;;;;5013784;28;20088;-84
2022/01/05 01:32:37;;;;;;;13.02;2.63;;;2.10;99.90;;;;;;5028324;28;20040;-84
2022/01/05 01:35:05;;;;;;;9.30;2.40;;;2.10;99.90;;;;;;5012746;28;20049;-84
2022/01/05 01:37:31;;;;;;;12.95;2.58;;;2.10;99.90;;;;;;4994756;28;20128;-84
2022/01/05 01:39:57;;;;;;;9.75;1.85;;;2.10;99.90;;;;;;5010740;28;20045;-85
2022/01/05 01:42:23;;;;;;;8.25;1.70;;;2.10;99.90;;;;;;4993659;28;20084;-84
2022/01/05 01:44:49;;;;;;;8.85;1.92;;;2.00;99.90;;;;;;5011078;28;20041;-84
2022/01/05 01:47:15;;;;;;;15.25;2.45;;;2.00;99.90;;;;;;5026882;28;20044;-83
2022/01/05 01:49:42;;;;;;;13.43;2.63;;;2.00;99.90;;;;;;4997236;28;20094;-84
2022/01/05 01:52:08;;;;;;;9.27;1.88;;;2.00;99.90;;;;;;4995971;28;20045;-84
2022/01/05 01:54:35;;;;;;;9.57;3.00;;;2.00;99.90;;;;;;4995196;28;20080;-84
2022/01/05 01:57:03;;;;;;;12.13;2.67;;;1.90;99.90;;;;;;4981664;28;20050;-84
2022/01/05 01:59:29;;;;;;;9.32;1.92;;;1.90;99.90;;;;;;5027936;28;20040;-84
2022/01/05 02:01:55;;;;;;;10.80;2.63;;;2.00;99.90;;;;;;4994168;28;20974;-84
2022/01/05 02:04:21;;;;;;;14.07;1.92;;;1.90;99.90;;;;;;5007910;28;20599;-84
2022/01/05 02:06:48;;;;;;;7.57;1.80;;;1.80;99.90;;;;;;5026698;28;20049;-83
2022/01/05 02:09:15;;;;;;;9.95;2.33;;;1.90;99.90;;;;;;5010429;28;20094;-84
2022/01/05 02:11:42;;;;;;;18.42;3.72;;;1.90;99.90;;;;;;5008256;28;20053;-84
2022/01/05 02:14:08;;;;;;;14.07;2.90;;;1.90;99.90;;;;;;4995807;28;20041;-84
2022/01/05 02:16:40;;;;;;;11.30;2.22;;;1.90;99.90;;;;;;4989130;28;20053;-84
2022/01/05 02:19:07;;;;;;;18.95;2.38;;;1.90;99.90;;;;;;5019888;28;20036;-85
2022/01/05 02:21:35;;;;;;;13.75;3.00;;;2.00;99.90;;;;;;4993126;28;20049;-84
2022/01/05 02:24:02;;;;;;;13.27;2.63;;;2.00;99.90;;;;;;4989920;28;20148;-85
2022/01/05 02:26:28;;;;;;;12.40;2.28;;;2.00;99.90;;;;;;5021892;28;20527;-85
2022/01/05 02:28:55;;;;;;;12.27;2.30;;;2.00;99.90;;;;;;4976253;28;20502;-84
2022/01/05 02:31:22;;;;;;;11.57;2.50;;;2.00;99.90;;;;;;4988438;28;20063;-84
2022/01/05 02:33:48;;;;;;;12.13;2.70;;;2.10;99.90;;;;;;5022170;28;20154;-84
2022/01/05 02:36:19;;;;;;;13.50;3.63;;;2.10;99.90;;;;;;5042758;28;20107;-85
2022/01/05 02:38:51;;;;;;;16.67;4.05;;;2.10;99.90;;;;;;5021503;28;20413;-84
2022/01/05 02:41:17;;;;;;;;;;;2.10;99.90;;;;;;4997490;28;20492;-84
2022/01/05 02:43:44;;;;;;;13.02;3.13;;;2.20;99.90;;;;;;5019801;28;20288;-85
2022/01/05 02:46:22;;;;;;;10.30;2.13;;;2.20;99.90;;;;;;4989118;28;20165;-85
2022/01/05 02:48:52;;;;;;;16.00;3.20;;;2.20;99.90;;;;;;5007004;28;20036;-85
2022/01/05 02:51:18;;;;;;;14.30;2.78;;;2.30;99.90;;;;;;5004858;28;20048;-84
2022/01/05 02:53:45;;;;;;;19.38;3.38;;;2.30;99.90;;;;;;5020399;28;21056;-85
2022/01/05 02:56:11;;;;;;;13.98;2.47;;;2.30;99.90;;;;;;4989412;28;20041;-84
2022/01/05 02:58:38;;;;;;;14.32;2.80;;;2.20;99.90;;;;;;5038201;28;20485;-84
2022/01/05 03:01:05;;;;;;;14.77;3.08;;;2.30;99.90;;;;;;5003935;28;20099;-84
2022/01/05 03:03:32;;;;;;;17.58;2.95;;;2.30;99.90;;;;;;4987806;28;20055;-84
2022/01/05 03:05:59;;;;;;;15.43;2.63;;;2.30;99.90;;;;;;5003886;28;20051;-84
2022/01/05 03:08:25;;;;;;;12.43;2.78;;;2.40;99.90;;;;;;5006104;28;20041;-84
2022/01/05 03:10:51;;;;;;;16.08;3.03;;;2.30;99.90;;;;;;5025716;28;20091;-84
2022/01/05 03:13:18;;;;;;;16.42;3.80;;;2.50;99.90;;;;;;4996719;28;20092;-84
2022/01/05 03:15:44;;;;;;;15.40;2.72;;;2.50;99.90;;;;;;4978648;28;20049;-84
2022/01/05 03:18:10;;;;;;;13.77;2.97;;;2.40;99.90;;;;;;5013029;28;20482;-84
2022/01/05 03:20:36;;;;;;;18.75;3.88;;;2.50;99.90;;;;;;4999529;28;20514;-84
2022/01/05 03:23:06;;;;;;;15.25;2.83;;;2.50;99.90;;;;;;4993649;28;20036;-84
2022/01/05 03:25:32;;;;;;;11.02;2.17;;;2.60;99.90;;;;;;5013101;28;20461;-84
2022/01/05 03:27:58;;;;;;;16.65;3.55;;;2.50;99.90;;;;;;5024190;28;20079;-84
2022/01/05 03:30:28;;;;;;;14.73;2.92;;;2.60;99.90;;;;;;4995561;28;20048;-85
2022/01/05 03:35:29;;;;;;;14.93;3.55;;;2.60;99.90;;;;;;5010393;28;20749;-84
2022/01/05 03:37:56;;;;;;;17.80;4.00;;;2.60;99.90;;;;;;5042061;28;20068;-84
2022/01/05 03:40:24;;;;;;;15.40;3.03;;;2.60;99.90;;;;;;5007041;28;20599;-84
2022/01/05 03:42:50;;;;;;;15.13;2.80;;;2.60;99.90;;;;;;5013485;28;20509;-83
2022/01/05 03:45:16;;;;;;;16.48;3.65;;;2.60;99.90;;;;;;4992038;28;20040;-84
2022/01/05 03:47:43;;;;;;;13.13;3.28;;;2.60;99.90;;;;;;4996566;28;20049;-84
2022/01/05 03:50:10;;;;;;;16.70;3.10;;;2.50;99.90;;;;;;4994764;28;20045;-84
2022/01/05 03:52:36;;;;;;;20.88;3.28;;;2.50;99.90;;;;;;5009861;28;20097;-83
2022/01/05 03:55:04;;;;;;;17.98;3.17;;;2.60;99.90;;;;;;5030702;28;20053;-83
2022/01/05 03:57:32;;;;;;;19.05;3.10;;;2.60;99.90;;;;;;4991925;28;20041;-83
2022/01/05 03:59:59;;;;;;;18.20;3.58;;;2.70;99.90;;;;;;5039766;28;20041;-83
2022/01/05 04:02:26;;;;;;;14.15;3.72;;;2.70;99.90;;;;;;4993046;28;20053;-83
2022/01/05 04:04:52;;;;;;;19.73;3.20;;;2.80;99.90;;;;;;5045299;28;20528;-83
2022/01/05 04:07:18;;;;;;;18.17;3.92;;;2.70;99.90;;;;;;5021726;28;20045;-84
2022/01/05 04:09:45;;;;;;;15.18;4.03;;;2.70;99.90;;;;;;4993284;28;20437;-84
2022/01/05 04:12:11;;;;;;;15.93;3.58;;;2.80;99.90;;;;;;4993517;28;20045;-83
2022/01/05 04:14:37;;;;;;;15.38;2.95;;;2.90;99.90;;;;;;4993941;28;20037;-84
2022/01/05 04:17:04;;;;;;;12.77;2.88;;;2.80;99.90;;;;;;5025059;28;20056;-84
2022/01/05 04:19:35;;;;;;;15.40;2.92;;;2.80;99.90;;;;;;4992423;28;20052;-83
2022/01/05 04:22:02;;;;;;;17.88;3.53;;;2.90;99.90;;;;;;4991644;28;20045;-83
2022/01/05 04:24:28;;;;;;;15.38;3.88;;;2.80;99.90;;;;;;5023022;28;20147;-83
2022/01/05 04:26:54;;;;;;;16.08;3.90;;;2.80;99.90;;;;;;5026256;28;20037;-84
2022/01/05 04:29:20;;;;;;;16.38;2.97;;;2.90;99.90;;;;;;5025832;28;20056;-83
2022/01/05 04:31:46;;;;;;;17.52;4.10;;;3.00;99.90;;;;;;4997881;28;20051;-84
2022/01/05 04:34:12;;;;;;;13.07;2.92;;;2.90;99.90;;;;;;5041563;28;20049;-83
2022/01/05 04:36:39;;;;;;;17.45;3.35;;;3.00;99.90;;;;;;5023981;28;20398;-82
2022/01/05 04:39:05;;;;;;;11.18;2.50;;;3.10;99.90;;;;;;5011526;28;20041;-83
2022/01/05 04:41:31;;;;;;;13.90;2.80;;;3.10;99.90;;;;;;5008848;28;21650;-83
2022/01/05 04:43:57;;;;;;;12.77;2.65;;;3.20;99.90;;;;;;5005182;28;20045;-82
2022/01/05 04:46:23;;;;;;;17.77;2.85;;;3.20;99.90;;;;;;5021721;28;20049;-82
2022/01/05 04:48:50;;;;;;;13.80;2.35;;;3.20;99.90;;;;;;5040129;28;20051;-82
2022/01/05 04:51:16;;;;;;;11.43;2.03;;;3.10;99.90;;;;;;5006340;28;20136;-83
2022/01/05 04:53:42;;;;;;;13.18;2.90;;;3.20;99.90;;;;;;5023955;28;20516;-81
2022/01/05 04:56:08;;;;;;;12.52;3.17;;;3.20;99.90;;;;;;4959588;28;20049;-82
2022/01/05 04:58:36;;;;;;;11.88;2.58;;;3.30;99.90;;;;;;4975149;28;20447;-83
2022/01/05 05:01:03;;;;;;;10.07;2.35;;;3.20;99.90;;;;;;5006835;28;20041;-83
2022/01/05 05:03:31;;;;;;;11.20;2.50;;;3.20;99.90;;;;;;5011948;28;20112;-82
2022/01/05 05:05:57;;;;;;;12.45;3.50;;;3.20;99.90;;;;;;4992478;28;20072;-83
2022/01/05 05:08:23;;;;;;;11.60;3.00;;;3.30;99.90;;;;;;5011653;28;20049;-82
2022/01/05 05:10:49;;;;;;;18.08;3.95;;;3.20;99.90;;;;;;5044794;28;20049;-83
2022/01/05 05:13:15;;;;;;;11.68;3.20;;;3.20;99.90;;;;;;5042282;28;20045;-83
2022/01/05 05:15:41;;;;;;;18.20;3.00;;;3.20;99.90;;;;;;4978797;28;20114;-82
2022/01/05 05:18:08;;;;;;;19.35;2.78;;;3.20;99.90;;;;;;5009059;28;20080;-83
2022/01/05 05:20:35;;;;;;;14.82;2.67;;;3.20;99.90;;;;;;5012732;28;20122;-82
2022/01/05 05:23:02;;;;;;;16.10;2.78;;;3.30;99.90;;;;;;5011862;28;20475;-83
2022/01/05 05:25:28;;;;;;;11.10;2.38;;;3.30;99.90;;;;;;4980374;28;20059;-83
2022/01/05 05:27:54;;;;;;;15.48;2.83;;;3.40;99.90;;;;;;5014631;28;20098;-83
2022/01/05 05:30:20;;;;;;;15.23;2.78;;;3.40;99.90;;;;;;4979914;28;20045;-83
2022/01/05 05:32:46;;;;;;;13.55;3.22;;;3.50;99.90;;;;;;5033907;28;20127;-83
2022/01/05 05:35:14;;;;;;;10.13;2.20;;;3.50;99.90;;;;;;4998134;28;21078;-82
2022/01/05 05:37:41;;;;;;;10.85;2.88;;;3.60;99.90;;;;;;4977373;28;20071;-82
2022/01/05 05:40:07;;;;;;;16.63;3.22;;;3.60;99.90;;;;;;5003210;28;20053;-82
2022/01/05 05:42:34;;;;;;;12.88;2.88;;;3.70;99.90;;;;;;5013494;28;20064;-82
2022/01/05 05:45:00;;;;;;;13.25;2.97;;;3.70;99.90;;;;;;4960734;28;20042;-82
2022/01/05 05:47:26;;;;;;;8.93;2.35;;;3.80;99.90;;;;;;5002893;28;20045;-83
2022/01/05 05:49:52;;;;;;;15.80;2.50;;;3.70;99.90;;;;;;5005100;28;20059;-83
2022/01/05 05:52:19;;;;;;;13.02;2.85;;;3.90;99.90;;;;;;5013724;28;20071;-85
2022/01/05 05:54:45;;;;;;;8.73;2.58;;;3.90;99.90;;;;;;5015007;28;20036;-83
2022/01/05 05:57:11;;;;;;;17.02;3.55;;;3.90;99.90;;;;;;5010683;28;20072;-82
2022/01/05 05:59:37;;;;;;;17.25;3.75;;;3.90;99.90;;;;;;5008852;28;20038;-83
2022/01/05 06:02:03;;;;;;;12.82;3.30;;;3.90;99.90;;;;;;4996025;28;20052;-82
2022/01/05 06:04:29;;;;;;;12.98;2.45;;;4.00;99.90;;;;;;5000443;28;20127;-82
2022/01/05 06:06:56;;;;;;;11.95;2.97;;;4.10;99.90;;;;;;4981315;28;20052;-82
2022/01/05 06:09:22;;;;;;;14.30;2.97;;;4.10;99.90;;;;;;4999969;28;20405;-81
2022/01/05 06:11:49;;;;;;;15.63;2.55;;;4.20;99.90;;;;;;4989581;28;20053;-82
2022/01/05 06:14:15;;;;;;;13.27;2.78;;;4.20;99.90;;;;;;5029576;28;20053;-81
2022/01/05 06:16:43;;;;;;;17.33;3.28;;;4.30;99.90;;;;;;4996348;28;20053;-81
2022/01/05 06:19:09;;;;;;;11.90;2.85;;;4.20;99.90;;;;;;4996338;28;20125;-81
2022/01/05 06:21:36;;;;;;;10.27;2.50;;;4.20;99.90;;;;;;5016295;28;20041;-82
2022/01/05 06:24:02;;;;;;;15.75;2.60;;;4.10;99.90;;;;;;4998264;28;20033;-82
2022/01/05 06:26:28;;;;;;;16.13;2.50;;;4.10;99.90;;;;;;5029878;28;20060;-82
2022/01/05 06:28:54;;;;;;;14.65;3.38;;;4.00;99.90;;;;;;4997500;28;20048;-81
2022/01/05 06:31:21;;;;;;;16.13;2.97;;;4.00;99.90;;;;;;4997497;28;20048;-81
2022/01/05 06:33:47;;;;;;;14.63;3.25;;;3.90;99.90;;;;;;4996077;28;20132;-82
2022/01/05 06:36:13;;;;;;;14.73;3.28;;;4.00;99.90;;;;;;5013546;28;20043;-82
2022/01/05 06:38:39;;;;;;;14.80;2.88;;;4.00;99.90;;;;;;4995866;28;20113;-81
2022/01/05 06:41:05;;;;;;;18.17;2.83;;;3.90;99.90;;;;;;5045771;28;20075;-83
2022/01/05 06:43:31;;;;;;;18.58;3.45;;;3.90;99.90;;;;;;5010066;28;20436;-83
2022/01/05 06:45:58;;;;;;;15.60;2.40;;;3.90;99.90;;;;;;4996850;28;20139;-83
2022/01/05 06:48:25;;;;;;;13.85;3.17;;;3.90;99.90;;;;;;5010782;28;20041;-83
2022/01/05 06:50:51;;;;;;;12.57;3.42;;;3.90;99.90;;;;;;5019160;28;20044;-82
2022/01/05 06:53:17;;;;;;;18.25;3.50;;;3.90;99.90;;;;;;5011775;28;20052;-82
2022/01/05 06:55:44;;;;;;;8.68;2.00;;;3.90;99.90;;;;;;5026017;28;20123;-83
2022/01/05 06:58:10;;;;;;;13.30;2.97;;;3.90;99.90;;;;;;5013825;28;20033;-84
2022/01/05 07:00:36;;;;;;;17.65;3.03;;;4.00;99.90;;;;;;5031703;28;20052;-85
2022/01/05 07:03:04;;;;;;;13.45;3.75;;;3.90;99.90;;;;;;4998345;28;20130;-84
2022/01/05 07:05:31;;;;;;;11.25;2.60;;;3.90;99.90;;;;;;4999377;28;20496;-83
2022/01/05 07:07:58;;;;;;;18.42;3.45;;;4.00;99.90;;;;;;5031099;28;20114;-83
2022/01/05 07:10:24;;;;;;;12.77;2.80;;;3.90;99.90;;;;;;5012313;28;20056;-84
2022/01/05 07:12:50;;;;;;;9.93;2.47;;;3.90;99.90;;;;;;4994854;28;20048;-81
2022/01/05 07:15:16;;;;;;;9.98;1.98;;;3.90;99.90;;;;;;5026027;28;20037;-81
2022/01/05 07:17:43;;;;;;;13.02;2.30;;;3.80;99.90;;;;;;5014373;28;20041;-83
2022/01/05 07:20:09;;;;;;;12.23;3.45;;;3.80;99.90;;;;;;4986522;28;20126;-81
2022/01/05 07:22:37;;;;;;;10.10;2.00;;;3.80;99.90;;;;;;4997031;28;20041;-81
2022/01/05 07:25:04;;;;;;;12.02;3.35;;;3.80;99.90;;;;;;4981011;28;20422;-84
2022/01/05 07:27:30;;;;;;;11.52;2.47;;;3.70;99.90;;;;;;4996784;28;20041;-83
2022/01/05 07:29:56;;;;;;;10.18;2.55;;;3.70;99.90;;;;;;4978656;28;20520;-84
2022/01/05 07:32:22;;;;;;;12.55;2.17;;;3.60;99.90;;;;;;5012128;28;20041;-84
2022/01/05 07:34:49;;;;;;;11.57;1.95;;;3.50;99.90;;;;;;5012207;28;20053;-85
2022/01/05 07:37:16;;;;;;;13.20;2.55;;;3.50;99.90;;;;;;4997368;28;20045;-86
2022/01/05 07:39:42;;;;;;;7.15;2.08;;;3.50;99.90;;;;;;4979014;28;20079;-84
2022/01/05 07:42:08;;;;;;;9.13;2.25;;;3.50;99.90;;;;;;4997417;28;20056;-85
2022/01/05 07:44:36;;;;;;;10.35;2.20;;;3.50;99.90;;;;;;4996542;28;20076;-85
2022/01/05 07:47:02;;;;;;;8.43;1.50;;;3.50;99.90;;;;;;5029096;28;20053;-84
2022/01/05 07:49:28;;;;;;;10.65;2.03;;;3.50;99.90;;;;;;5008411;28;20249;-85
2022/01/05 07:51:54;;;;;;;11.45;2.38;;;3.50;99.90;;;;;;4978782;28;20045;-84
2022/01/05 07:54:21;;;;;;;12.48;2.78;;;3.50;99.90;;;;;;5028227;28;20044;-84
2022/01/05 07:56:47;;;;;;;13.13;3.20;;;3.60;99.90;;;;;;5025538;28;20036;-84
2022/01/05 07:59:13;;;;;;;12.68;2.78;;;3.60;99.90;;;;;;4996468;28;20447;-84
2022/01/05 08:01:39;;;;;;;14.18;2.53;;;3.60;99.90;;;;;;4997722;28;20500;-85
2022/01/05 08:04:06;;;;;;;16.50;3.30;;;3.70;99.90;;;;;;5033453;28;20095;-87
2022/01/05 08:06:32;;;;;;;8.55;2.20;;;3.70;99.90;;;;;;5016333;28;20132;-86
2022/01/05 08:09:00;;;;;;;14.95;2.50;;;3.70;99.90;;;;;;4983362;28;20771;-86
2022/01/05 08:11:26;;;;;;;11.68;2.47;;;3.80;99.90;;;;;;5011058;28;20128;-86
2022/01/05 08:13:52;;;;;;;14.13;2.65;;;3.90;99.90;;;;;;5045584;28;20739;-85
2022/01/05 08:16:19;;;;;;;18.25;3.22;;;4.00;99.90;;;;;;5019697;28;20049;-82
2022/01/05 08:18:45;;;;;;;15.77;3.28;;;4.10;99.90;;;;;;5000207;28;20055;-85
2022/01/05 08:21:12;;;;;;;17.65;3.13;;;4.20;99.90;;;;;;4996596;28;20067;-86
2022/01/05 08:23:39;;;;;;;17.52;3.75;;;4.30;99.90;;;;;;5016282;28;20098;-85
2022/01/05 08:26:05;;;;;;;23.52;3.80;;;4.40;99.90;;;;;;5015443;28;20143;-85
2022/01/05 08:28:32;;;;;;;18.55;3.17;;;4.50;99.90;;;;;;4998842;28;20036;-85
2022/01/05 08:30:59;;;;;;;21.48;4.32;;;4.50;99.90;;;;;;4999558;28;20049;-85
2022/01/05 08:33:25;;;;;;;18.25;2.85;;;4.60;99.90;;;;;;4984066;28;20041;-86
2022/01/05 08:35:51;;;;;;;13.82;3.00;;;4.60;99.90;;;;;;5033214;28;20135;-85
2022/01/05 08:38:18;;;;;;;15.18;3.22;;;4.70;99.90;;;;;;4998627;28;20652;-86
2022/01/05 08:40:44;;;;;;;13.68;2.47;;;4.60;99.90;;;;;;4983148;28;20409;-85
2022/01/05 08:43:12;;;;;;;14.48;2.08;;;4.70;99.90;;;;;;5015044;28;20128;-86
2022/01/05 08:45:39;;;;;;;11.38;2.03;;;4.70;99.90;;;;;;4985152;28;20671;-86
2022/01/05 08:48:06;;;;;;;15.45;2.42;;;4.80;99.90;;;;;;5018616;28;20059;-86
2022/01/05 08:50:33;;;;;;;14.15;2.08;;;4.70;99.90;;;;;;5017116;28;20065;-81
2022/01/05 08:53:00;;;;;;;9.02;2.20;;;4.70;99.90;;;;;;5017113;28;20042;-83
2022/01/05 08:55:35;;;;;;;13.93;2.45;;;4.70;99.90;;;;;;5015918;28;20094;-84
2022/01/05 08:58:02;;;;;;;11.43;1.95;;;4.70;99.90;;;;;;5014331;28;20499;-82
2022/01/05 09:00:28;;;;;;;13.85;2.40;;;4.80;99.90;;;;;;5015273;28;20063;-83
2022/01/05 09:02:54;;;;;;;12.90;2.33;;;4.80;99.90;;;;;;5013295;28;21795;-84
2022/01/05 09:05:20;;;;;;;12.60;2.60;;;4.80;99.90;;;;;;5013195;28;20052;-83
2022/01/05 09:07:47;;;;;;;11.60;2.67;;;4.90;99.90;;;;;;5031378;28;20052;-83
2022/01/05 09:10:13;;;;;;;15.38;3.95;;;5.00;99.90;;;;;;5015448;28;20040;-87
2022/01/05 09:12:39;;;;;;;13.55;2.42;;;5.00;99.90;;;;;;4965330;28;20037;-84
2022/01/05 09:15:06;;;;;;;15.40;2.13;;;5.20;99.90;;;;;;5014233;28;20103;-85
2022/01/05 09:17:33;;;;;;;11.25;1.83;;;5.20;99.90;;;;;;5030832;28;20118;-84
2022/01/05 09:20:00;;;;;;;14.65;2.50;;;5.30;99.90;;;;;;5012368;28;20052;-84
2022/01/05 09:22:26;;;;;;;11.13;2.85;;;5.50;99.90;;;;;;4982345;28;20551;-86
2022/01/05 09:24:52;;;;;;;15.75;2.22;;;5.40;99.90;;;;;;5016562;28;20811;-83
2022/01/05 09:27:19;;;;;;;18.98;3.35;;;5.50;99.90;;;;;;5032298;28;20132;-85
2022/01/05 09:29:46;;;;;;;15.05;2.10;;;5.50;99.90;;;;;;5015991;28;20051;-84
2022/01/05 09:32:16;;;;;;;17.65;3.53;;;5.50;99.90;;;;;;5016900;28;20041;-83
2022/01/05 09:34:44;;;;;;;10.60;2.20;;;5.50;99.90;;;;;;5011072;28;20041;-85
2022/01/05 09:37:19;;;;;;;15.85;2.78;;;5.50;99.90;;;;;;5016990;28;20041;-82
2022/01/05 09:42:31;;;;;;;19.10;3.22;;;5.50;99.90;;;;;;4987721;28;20037;-84
2022/01/05 09:44:58;;;;;;;14.63;2.60;;;5.60;99.90;;;;;;5011934;28;20128;-84
2022/01/05 09:47:34;;;;;;;11.05;2.45;;;5.70;99.90;;;;;;5028992;28;20045;-83
2022/01/05 09:50:03;;;;;;;18.65;3.08;;;5.70;99.90;;;;;;5032166;28;20500;-82
2022/01/05 09:52:39;;;;;;;19.08;3.58;;;5.70;99.90;;;;;;5005193;28;20052;-83
2022/01/05 09:55:09;;;;;;;23.92;4.15;;;5.70;99.90;;;;;;5000063;28;20059;-83
2022/01/05 09:57:39;;;;;;;23.48;3.28;;;5.70;99.90;;;;;;5028955;28;20075;-83
2022/01/05 10:00:07;;;;;;;19.58;4.00;;;5.80;99.90;;;;;;5014208;28;20037;-82
2022/01/05 10:02:39;;;;;;;17.55;3.47;;;5.80;99.90;;;;;;5013818;28;20534;-81
2022/01/05 10:05:12;;;;;;;18.67;4.03;;;5.80;99.90;;;;;;5029187;28;20045;-83
2022/01/05 10:07:39;;;;;;;18.48;4.55;;;5.80;99.90;;;;;;5031191;28;20143;-82
2022/01/05 10:10:06;;;;;;;19.55;3.10;;;5.80;99.90;;;;;;5012396;28;20037;-83
2022/01/05 10:12:34;;;;;;;16.55;3.20;;;5.80;99.90;;;;;;5009035;28;20132;-85
2022/01/05 10:15:00;;;;;;;20.77;3.63;;;5.90;99.90;;;;;;5015548;28;20076;-84
2022/01/05 10:17:29;;;;;;;23.77;4.28;;;5.90;99.90;;;;;;5015323;28;20049;-83
2022/01/05 10:20:10;;;;;;;21.38;4.03;;;6.00;99.90;;;;;;4999988;28;20098;-83
2022/01/05 10:22:42;;;;;;;18.50;3.45;;;6.00;99.90;;;;;;5030324;28;20040;-83
2022/01/05 10:25:11;;;;;;;24.23;4.53;;;6.10;99.90;;;;;;5014304;28;20045;-84
2022/01/05 10:27:39;;;;;;;23.65;3.58;;;6.10;99.90;;;;;;4997969;28;20068;-83
2022/01/05 10:30:13;;;;;;;24.35;3.92;;;6.30;99.90;;;;;;5013669;28;20041;-84
2022/01/05 10:32:42;;;;;;;20.42;3.65;;;6.40;99.90;;;;;;5004769;28;20045;-83
2022/01/05 10:35:09;;;;;;;19.90;3.40;;;6.50;99.90;;;;;;5044462;28;20453;-82
2022/01/05 10:37:37;;;;;;;18.67;4.03;;;6.70;99.90;;;;;;5010402;28;20084;-84
2022/01/05 10:40:09;;;;;;;18.52;4.25;;;6.70;99.90;;;;;;5013921;28;20087;-84
2022/01/05 10:42:36;;;;;;;28.45;5.03;;;6.70;99.90;;;;;;5012535;28;20050;-83
2022/01/05 10:45:05;;;;;;;20.92;3.92;;;6.70;99.90;;;;;;5025106;28;20139;-85
2022/01/05 10:47:34;;;;;;;23.90;3.88;;;6.80;99.90;;;;;;5000400;28;20065;-84
2022/01/05 10:50:01;;;;;;;22.48;3.97;;;6.80;99.90;;;;;;5032519;28;20048;-81
2022/01/05 10:52:28;;;;;;;22.10;4.22;;;6.80;99.90;;;;;;5022727;28;20037;-83
2022/01/05 10:55:07;;;;;;;22.83;4.45;;;6.80;99.90;;;;;;5037225;28;20042;-82
2022/01/05 10:57:33;;;;;;;20.38;3.55;;;6.80;99.90;;;;;;5032168;28;20501;-83
2022/01/05 11:00:00;;;;;;;20.40;3.55;;;6.90;99.90;;;;;;5013212;28;20041;-83
2022/01/05 11:02:33;;;;;;;17.63;3.25;;;7.00;99.90;;;;;;5027522;28;20048;-85
2022/01/05 11:05:02;;;;;;;18.40;4.07;;;7.30;99.90;;;;;;5010639;28;20575;-89
2022/01/05 11:07:31;;;;;;;13.68;3.20;;;7.50;99.90;;;;;;5016063;28;20463;-84
2022/01/05 11:10:01;;;;;;;17.83;4.15;;;7.70;99.90;;;;;;4997341;28;20136;-84
2022/01/05 11:12:34;;;;;;;18.45;3.83;;;8.00;99.90;;;;;;5001582;28;20041;-86
2022/01/05 11:15:28;;;;;;;19.88;3.65;;;8.10;99.90;;;;;;5014136;28;20098;-84
2022/01/05 11:18:11;;;;;;;16.42;3.47;;;8.50;99.90;;;;;;5008405;28;20072;-83
2022/01/05 11:20:42;;;;;;;14.23;2.97;;;8.70;99.90;;;;;;5046440;28;20382;-83
2022/01/05 11:23:13;;;;;;;23.05;3.67;;;8.70;99.90;;;;;;4996842;28;20505;-82
2022/01/05 11:25:42;;;;;;;16.58;3.00;;;8.80;99.90;;;;;;5013351;28;20041;-82
2022/01/05 11:28:08;;;;;;;13.35;3.08;;;9.00;99.90;;;;;;5013943;28;20079;-83
2022/01/05 11:30:36;;;;;;;12.65;3.05;;;9.10;99.90;;;;;;5014096;28;20098;-85
2022/01/05 11:33:03;;;;;;;13.93;3.85;;;9.30;99.90;;;;;;4997597;28;20044;-86
2022/01/05 11:35:29;;;;;;;17.40;3.45;;;9.10;99.90;;;;;;5013931;28;20110;-85
2022/01/05 11:37:56;;;;;;;19.67;3.47;;;9.20;99.90;;;;;;5003551;28;20044;-88
2022/01/05 11:40:23;;;;;;;13.00;3.05;;;9.00;99.90;;;;;;5020481;28;20241;-85
2022/01/05 11:42:56;;;;;;;12.35;2.65;;;8.80;99.90;;;;;;5035377;28;20049;-85
2022/01/05 11:45:34;;;;;;;13.80;2.63;;;8.80;99.90;;;;;;5013214;28;20408;-85
2022/01/05 11:48:11;;;;;;;16.85;2.95;;;8.80;99.90;;;;;;5023325;28;20127;-83
2022/01/05 11:50:44;;;;;;;11.40;2.28;;;9.10;99.90;;;;;;5020887;28;20134;-84
2022/01/05 11:53:10;;;;;;;12.55;2.47;;;9.40;99.90;;;;;;5027566;28;20053;-85
2022/01/05 11:55:58;;;;;;;15.35;2.30;;;9.50;99.90;;;;;;4999214;28;20405;-84
2022/01/05 11:58:28;;;;;;;16.27;2.72;;;9.70;99.90;;;;;;5008634;28;20555;-84
2022/01/05 12:01:12;;;;;;;16.52;3.22;;;9.70;99.90;;;;;;5011495;28;20060;-84
2022/01/05 12:03:50;;;;;;;14.57;2.50;;;9.30;99.90;;;;;;5021826;28;20488;-84
2022/01/05 12:06:17;;;;;;;14.07;2.53;;;8.80;99.90;;;;;;5047955;28;20119;-84
2022/01/05 12:08:44;;;;;;;13.75;2.55;;;8.20;99.90;;;;;;5008255;28;20052;-86
2022/01/05 12:11:29;;;;;;;17.02;2.88;;;7.90;99.90;;;;;;5008921;28;20049;-85
2022/01/05 12:14:04;;;;;;;10.88;2.22;;;7.80;99.90;;;;;;5011982;28;20131;-83
2022/01/05 12:16:59;;;;;;;10.02;2.17;;;8.60;99.90;;;;;;5044812;28;20044;-85
2022/01/05 12:19:41;;;;;;;10.18;1.85;;;8.90;99.90;;;;;;5032901;28;20045;-85
2022/01/05 12:22:22;;;;;;;9.88;2.00;;;9.80;99.90;;;;;;5013407;28;20058;-86
2022/01/05 12:25:00;;;;;;;12.30;2.58;;;10.00;99.90;;;;;;5042439;28;20134;-86
2022/01/05 12:27:33;;;;;;;14.65;2.30;;;10.00;99.90;;;;;;5029301;28;20052;-85
2022/01/05 12:30:01;;;;;;;12.70;2.58;;;10.20;99.90;;;;;;5016495;28;20048;-86
2022/01/05 12:32:38;;;;;;;17.10;3.97;;;10.70;99.90;;;;;;5042723;28;20111;-86
2022/01/05 12:35:20;;;;;;;13.73;2.63;;;10.50;99.90;;;;;;4996549;28;20044;-86
2022/01/05 12:37:58;;;;;;;12.48;2.58;;;10.80;99.90;;;;;;5027432;28;20441;-87
2022/01/05 12:40:30;;;;;;;11.02;2.72;;;10.50;99.90;;;;;;5010983;28;20048;-86
2022/01/05 12:43:08;;;;;;;14.63;2.80;;;11.00;99.90;;;;;;5029776;28;20108;-86
2022/01/05 12:45:50;;;;;;;13.63;2.80;;;10.40;99.90;;;;;;5008368;28;20057;-86
2022/01/05 12:48:32;;;;;;;15.35;3.08;;;10.00;99.90;;;;;;5027034;28;20044;-85
2022/01/05 12:51:22;;;;;;;13.43;2.70;;;9.80;99.90;;;;;;5034591;28;20037;-86
2022/01/05 12:53:56;;;;;;;14.15;3.55;;;9.40;99.90;;;;;;5009899;28;20096;-86
2022/01/05 12:56:24;;;;;;;15.25;3.00;;;9.30;99.90;;;;;;5027605;28;20045;-85
2022/01/05 12:58:56;;;;;;;13.82;3.45;;;8.90;99.90;;;;;;5015363;28;20112;-87